Погода Голицынона неделю

Пензенская область, Россия

25 - 31 мая
  • 25мая
    Сегодня
    +10°
    +22°
    Ясно и безоблачно
    ВремяПогодаТемператураВлажностьДавлениеВетер, м/сВероятность осадков
    00:00Практически безоблачно+11°C47 %760 мм0.1 м/с2 %
    03:00Ясно и безоблачно+7°C61 %760 мм2.2 м/с2 %
    06:00Ясно и безоблачно+11°C49 %760 мм2.6 м/с2 %
    09:00Ясно и безоблачно+17°C31 %760 мм3.6 м/с2 %
    12:00Ясно и безоблачно+20°C27 %759 мм3.6 м/с2 %
    15:00Ясно и безоблачно+21°C29 %757 мм4.1 м/с2 %
    18:00Ясно и безоблачно+21°C33 %756 мм3.9 м/с2 %
    21:00Ясно и безоблачно+15°C51 %756 мм2.8 м/с2 %
  • 26мая
    Воскресенье
    +8°
    +25°
    Облачно с прояснениями
    ВремяПогодаТемператураВлажностьДавлениеВетер, м/сВероятность осадков
    00:00Ясно и безоблачно+12°C60 %755 мм2.9 м/с2 %
    03:00Ясно и безоблачно+11°C60 %754 мм3.1 м/с2 %
    06:00Ясно и безоблачно+13°C58 %754 мм3.6 м/с2 %
    09:00Ясно и безоблачно+20°C42 %754 мм4.1 м/с2 %
    12:00Ясно и безоблачно+23°C31 %753 мм4.6 м/с3 %
    15:00Облачно с прояснениями+23°C38 %753 мм6.3 м/с12 %
    18:00Пасмурно, сплошная облачность+19°C65 %753 мм4.1 м/с16 %
    21:00Ясно и безоблачно+15°C75 %754 мм3.3 м/с6 %
  • 27мая
    Понедельник
    +7°
    +20°
    Ясно и безоблачно
    ВремяПогодаТемператураВлажностьДавлениеВетер, м/сВероятность осадков
    00:00Ясно и безоблачно+12°C70 %755 мм3.8 м/с2 %
    03:00Ясно и безоблачно+9°C61 %756 мм2.9 м/с1 %
    06:00Ясно и безоблачно+10°C60 %757 мм2.4 м/с2 %
    09:00Ясно и безоблачно+15°C40 %758 мм2.9 м/с2 %
    12:00Ясно и безоблачно+17°C31 %758 мм2.7 м/с2 %
    15:00Ясно и безоблачно+19°C30 %757 мм2.4 м/с2 %
    18:00Ясно и безоблачно+19°C32 %756 мм2.4 м/с2 %
    21:00Ясно и безоблачно+13°C53 %756 мм2.0 м/с2 %
  • 28мая
    Вторник
    +10°
    +23°
    Ясно и безоблачно
    ВремяПогодаТемператураВлажностьДавлениеВетер, м/сВероятность осадков
    00:00Ясно и безоблачно+9°C69 %756 мм1.9 м/с2 %
    03:00Ясно и безоблачно+8°C73 %756 мм1.9 м/с2 %
    06:00Ясно и безоблачно+10°C65 %756 мм2.0 м/с2 %
    09:00Ясно и безоблачно+18°C37 %756 мм2.1 м/с2 %
    12:00Ясно и безоблачно+20°C31 %756 мм2.2 м/с2 %
    15:00Ясно и безоблачно+22°C29 %754 мм2.5 м/с2 %
    18:00Ясно и безоблачно+22°C31 %753 мм2.2 м/с2 %
    21:00Ясно и безоблачно+16°C54 %753 мм2.0 м/с2 %
  • 29мая
    Среда
    +12°
    +25°
    Ясно и безоблачно
    ВремяПогодаТемператураВлажностьДавлениеВетер, м/сВероятность осадков
    00:00Ясно и безоблачно+12°C65 %752 мм2.4 м/с2 %
    03:00Ясно и безоблачно+11°C67 %752 мм2.7 м/с2 %
    06:00Ясно и безоблачно+14°C57 %751 мм1.5 м/с2 %
    09:00Ясно и безоблачно+21°C33 %751 мм2.2 м/с2 %
    12:00Ясно и безоблачно+23°C29 %751 мм2.2 м/с2 %
    15:00Ясно и безоблачно+25°C28 %750 мм2.3 м/с2 %
    18:00Ясно и безоблачно+25°C31 %749 мм2.3 м/с2 %
    21:00Ясно и безоблачно+18°C43 %749 мм2.2 м/с2 %
Мы используем cookies
Соглашаюсь